createdAt,value
2022-08-26T00:01:56.020Z,101267.69
2022-08-26T00:04:25.447Z,101267.69
2022-08-26T00:06:54.399Z,101263.16
2022-08-26T00:09:23.840Z,101186.66
2022-08-26T00:11:55.072Z,101273.94
2022-08-26T00:14:28.300Z,101274.78
2022-08-26T00:16:59.302Z,101263.44
2022-08-26T00:19:27.691Z,101266.84
2022-08-26T00:21:56.444Z,101260.75
2022-08-26T00:24:24.879Z,101270.53
2022-08-26T00:26:55.044Z,101259.75
2022-08-26T00:29:23.172Z,101265.00
2022-08-26T00:31:51.471Z,101268.53
2022-08-26T00:34:19.929Z,101267.69
2022-08-26T00:36:51.888Z,101260.59
2022-08-26T00:39:21.149Z,101235.69
2022-08-26T00:41:51.002Z,101265.13
2022-08-26T00:44:21.692Z,101240.66
2022-08-26T00:46:54.267Z,101260.03
2022-08-26T00:49:30.114Z,101267.16
2022-08-26T00:52:02.444Z,101267.16
2022-08-26T00:54:36.344Z,101267.97
2022-08-26T00:57:16.486Z,101261.03
2022-08-26T00:59:48.236Z,101258.06
2022-08-26T01:02:20.063Z,101245.59
2022-08-26T01:04:55.892Z,101254.50
2022-08-26T01:07:25.908Z,101250.97
2022-08-26T01:09:54.202Z,101252.97
2022-08-26T01:12:24.542Z,101258.06
2022-08-26T01:14:55.209Z,101240.78
2022-08-26T01:17:23.378Z,101259.75
2022-08-26T01:19:54.049Z,101257.06
2022-08-26T01:22:28.169Z,101247.28
2022-08-26T01:24:59.073Z,101254.34
2022-08-26T01:27:32.541Z,101263.16
2022-08-26T01:30:02.541Z,101257.06
2022-08-26T01:32:33.172Z,101257.06
2022-08-26T01:35:03.198Z,101247.28
2022-08-26T01:37:36.761Z,101251.66
2022-08-26T01:40:09.094Z,101251.50
2022-08-26T01:42:37.269Z,101244.59
2022-08-26T01:45:08.526Z,101246.28
2022-08-26T01:47:39.299Z,101238.19
2022-08-26T01:50:12.254Z,101244.44
2022-08-26T01:52:49.879Z,101237.34
2022-08-26T01:55:32.479Z,101239.03
2022-08-26T01:58:05.983Z,101237.34
2022-08-26T02:00:37.105Z,101189.31
2022-08-26T02:03:24.638Z,101221.19
2022-08-26T02:05:55.347Z,101225.72
2022-08-26T02:08:27.427Z,101231.09
2022-08-26T02:10:57.789Z,101225.72
2022-08-26T02:13:30.137Z,101190.34
2022-08-26T02:16:00.904Z,101232.78
2022-08-26T02:18:31.490Z,101232.78
2022-08-26T02:21:00.481Z,101227.41
2022-08-26T02:23:28.608Z,101226.56
2022-08-26T02:26:04.338Z,101225.41
2022-08-26T02:28:38.704Z,101220.03
2022-08-26T02:31:07.270Z,101215.66
2022-08-26T02:33:36.202Z,101216.47
2022-08-26T02:36:05.028Z,101214.63
2022-08-26T02:38:36.930Z,101220.03
2022-08-26T02:41:08.070Z,101210.94
2022-08-26T02:43:36.882Z,101218.19
2022-08-26T02:46:06.098Z,101209.25
2022-08-26T02:48:34.510Z,101216.31
2022-08-26T02:51:04.704Z,101213.25
2022-08-26T02:53:35.439Z,101211.22
2022-08-26T02:56:04.612Z,101209.25
2022-08-26T02:58:34.569Z,101200.44
2022-08-26T03:01:04.892Z,101200.16
2022-08-26T03:03:34.007Z,101202.03
2022-08-26T03:06:02.457Z,101198.47
2022-08-26T03:08:30.743Z,101198.47
2022-08-26T03:10:59.283Z,101200.16
2022-08-26T03:13:30.027Z,101199.31
2022-08-26T03:16:01.739Z,101193.06
2022-08-26T03:18:30.403Z,101189.66
2022-08-26T03:20:58.527Z,101187.13
2022-08-26T03:23:26.863Z,101186.00
2022-08-26T03:25:55.029Z,101193.06
2022-08-26T03:28:24.081Z,101198.47
2022-08-26T03:30:54.526Z,101191.38
2022-08-26T03:33:24.130Z,101189.38
2022-08-26T03:35:53.474Z,101192.06
2022-08-26T03:38:22.931Z,101193.06
2022-08-26T03:40:51.132Z,101193.06
2022-08-26T03:43:21.590Z,101189.38
2022-08-26T03:45:50.120Z,101184.28
2022-08-26T03:48:19.413Z,101172.41
2022-08-26T03:50:49.004Z,101180.91
2022-08-26T03:53:20.536Z,101197.75
2022-08-26T03:55:48.901Z,101195.06
2022-08-26T03:58:20.643Z,101189.66
2022-08-26T04:00:48.729Z,101187.97
2022-08-26T04:03:37.376Z,101187.97
2022-08-26T04:06:07.603Z,101189.00
2022-08-26T04:08:35.758Z,101180.91
2022-08-26T04:11:03.870Z,101176.34
2022-08-26T04:13:32.450Z,101180.91
2022-08-26T04:16:00.683Z,101189.66
2022-08-26T04:18:36.953Z,101182.59
2022-08-26T04:21:07.797Z,101115.81
2022-08-26T04:23:47.553Z,101183.59
2022-08-26T04:26:16.002Z,101186.28
2022-08-26T04:28:44.214Z,101169.00
2022-08-26T04:31:13.550Z,101178.22
2022-08-26T04:33:42.027Z,101185.28
2022-08-26T04:36:11.773Z,101182.59
2022-08-26T04:38:39.807Z,101176.47
2022-08-26T04:41:15.242Z,101175.50
2022-08-26T04:43:43.911Z,101182.59
2022-08-26T04:46:13.080Z,101179.88
2022-08-26T04:48:42.333Z,101177.19
2022-08-26T04:51:11.880Z,101189.66
2022-08-26T04:53:39.981Z,101180.75
2022-08-26T04:56:08.730Z,101187.97
2022-08-26T04:58:38.646Z,101187.13
2022-08-26T05:01:06.969Z,101185.28
2022-08-26T05:03:35.190Z,101187.84
2022-08-26T05:06:06.104Z,101186.66
2022-08-26T05:08:36.682Z,101187.38
2022-08-26T05:11:06.852Z,101178.59
2022-08-26T05:13:39.163Z,101185.38
2022-08-26T05:16:11.574Z,101183.69
2022-08-26T05:18:41.345Z,101188.78
2022-08-26T05:21:18.324Z,101186.78
2022-08-26T05:23:48.597Z,101186.78
2022-08-26T05:26:17.639Z,101192.03
2022-08-26T05:28:51.432Z,101192.19
2022-08-26T05:31:25.221Z,101186.78
2022-08-26T05:33:53.804Z,101105.84
2022-08-26T05:36:26.860Z,101184.78
2022-08-26T05:38:56.689Z,101141.66
2022-08-26T05:41:34.219Z,101192.56
2022-08-26T05:44:07.719Z,101189.88
2022-08-26T05:46:37.798Z,101187.88
2022-08-26T05:49:12.628Z,101186.03
2022-08-26T05:51:41.972Z,101179.69
2022-08-26T05:54:11.373Z,101185.19
2022-08-26T05:56:40.106Z,101186.88
2022-08-26T05:59:15.677Z,101184.19
2022-08-26T06:01:45.105Z,101184.19
2022-08-26T06:04:13.606Z,101187.59
2022-08-26T06:06:43.261Z,101177.09
2022-08-26T06:09:15.127Z,101183.19
2022-08-26T06:11:46.498Z,101182.19
2022-08-26T06:14:14.562Z,101176.81
2022-08-26T06:16:45.296Z,101187.59
2022-08-26T06:19:15.611Z,101178.47
2022-08-26T06:21:47.845Z,101180.06
2022-08-26T06:24:41.236Z,101181.88
2022-08-26T06:27:13.784Z,101173.81
2022-08-26T06:29:43.276Z,101180.22
2022-08-26T06:32:11.607Z,101176.50
2022-08-26T06:34:39.793Z,101169.41
2022-08-26T06:37:08.928Z,101179.91
2022-08-26T06:39:40.117Z,101171.09
2022-08-26T06:42:09.584Z,101171.09
2022-08-26T06:44:41.041Z,101176.50
2022-08-26T06:47:09.836Z,101094.72
2022-08-26T06:49:38.352Z,101172.78
2022-08-26T06:52:07.957Z,101171.97
2022-08-26T06:54:37.128Z,101153.25
2022-08-26T06:57:09.114Z,101158.63
2022-08-26T06:59:37.284Z,101163.72
2022-08-26T07:02:06.232Z,101164.56
2022-08-26T07:04:36.465Z,101160.31
2022-08-26T07:07:04.838Z,101158.34
2022-08-26T07:09:35.609Z,101160.03
2022-08-26T07:12:06.909Z,101157.31
2022-08-26T07:14:36.959Z,101150.25
2022-08-26T07:17:07.369Z,101160.03
2022-08-26T07:19:38.143Z,101156.31
2022-08-26T07:22:08.630Z,101152.63
2022-08-26T07:24:40.599Z,101148.22
2022-08-26T07:27:14.866Z,101143.53
2022-08-26T07:29:44.955Z,101130.66
2022-08-26T07:32:15.378Z,101133.75
2022-08-26T07:34:44.704Z,101138.16
2022-08-26T07:37:13.010Z,101132.75
2022-08-26T07:39:43.309Z,101138.16
2022-08-26T07:42:14.123Z,101136.47
2022-08-26T07:44:44.420Z,101132.75
2022-08-26T07:47:24.745Z,101110.72
2022-08-26T07:49:54.823Z,101134.44
2022-08-26T07:52:26.772Z,101132.75
2022-08-26T07:54:55.613Z,101139.00
2022-08-26T07:57:24.143Z,101135.75
2022-08-26T07:59:55.244Z,101129.03
2022-08-26T08:02:25.082Z,101130.75
2022-08-26T08:04:54.654Z,101129.03
2022-08-26T08:07:38.703Z,101125.38
2022-08-26T08:10:13.586Z,101116.03
2022-08-26T08:12:42.615Z,101098.50
2022-08-26T08:15:14.091Z,101125.06
2022-08-26T08:17:43.923Z,101121.34
2022-08-26T08:20:14.246Z,101121.34
2022-08-26T08:22:42.535Z,101112.88
2022-08-26T08:25:12.135Z,101116.56
2022-08-26T08:27:42.979Z,101107.78
2022-08-26T08:30:15.186Z,101108.47
2022-08-26T08:32:50.610Z,101116.97
2022-08-26T08:35:21.413Z,101117.97
2022-08-26T08:37:54.405Z,101114.28
2022-08-26T08:40:25.247Z,101108.03
2022-08-26T08:42:58.323Z,101030.31
2022-08-26T08:45:36.586Z,101114.28
2022-08-26T08:48:07.946Z,101117.97
2022-08-26T08:50:41.391Z,101119.69
2022-08-26T08:53:17.448Z,101112.56
2022-08-26T08:55:57.993Z,101080.34
2022-08-26T08:58:36.377Z,101110.88
2022-08-26T09:01:13.171Z,101104.47
2022-08-26T09:03:55.979Z,101099.78
2022-08-26T09:06:27.744Z,101108.88
2022-08-26T09:08:57.518Z,101098.09
2022-08-26T09:11:26.053Z,101099.78
2022-08-26T09:13:57.141Z,101094.38
2022-08-26T09:16:38.677Z,101089.00
2022-08-26T09:19:19.363Z,101087.47
2022-08-26T09:21:47.879Z,101089.00
2022-08-26T09:24:22.271Z,101003.94
2022-08-26T09:26:52.831Z,101060.00
2022-08-26T09:29:24.638Z,101080.19
2022-08-26T09:32:13.551Z,101082.91
2022-08-26T09:34:56.789Z,101082.22
2022-08-26T09:37:40.415Z,100990.06
2022-08-26T09:40:20.912Z,101067.34
2022-08-26T09:43:09.957Z,101073.44
2022-08-26T09:45:39.942Z,101071.75
2022-08-26T09:48:10.334Z,101067.19
2022-08-26T09:50:54.718Z,100967.72
2022-08-26T09:53:30.284Z,101049.94
2022-08-26T09:56:19.001Z,101047.06
2022-08-26T09:58:49.549Z,101059.53
2022-08-26T10:01:32.982Z,101057.56
2022-08-26T10:04:11.286Z,101057.00
2022-08-26T10:06:42.793Z,101057.72
2022-08-26T10:09:16.936Z,101043.16
2022-08-26T10:11:49.465Z,101052.16
2022-08-26T10:14:24.881Z,101055.88
2022-08-26T10:16:58.674Z,101046.94
2022-08-26T10:19:41.725Z,101047.78
2022-08-26T10:22:27.066Z,101050.47
2022-08-26T10:24:59.150Z,101051.47
2022-08-26T10:27:37.572Z,101048.75
2022-08-26T10:30:13.124Z,101047.06
2022-08-26T10:32:43.878Z,101044.38
2022-08-26T10:35:16.235Z,101050.78
2022-08-26T10:37:48.307Z,101048.75
2022-08-26T10:40:24.308Z,101033.50
2022-08-26T10:42:58.308Z,101038.59
2022-08-26T10:45:30.349Z,101045.69
2022-08-26T10:48:04.193Z,101041.13
2022-08-26T10:50:37.388Z,101042.00
2022-08-26T10:53:14.338Z,101036.59
2022-08-26T10:55:48.815Z,101003.03
2022-08-26T10:58:33.114Z,101027.81
2022-08-26T11:01:29.569Z,101026.13
2022-08-26T11:04:05.917Z,101019.56
2022-08-26T11:06:37.055Z,101016.03
2022-08-26T11:09:08.723Z,101017.88
2022-08-26T11:11:46.918Z,101011.31
2022-08-26T11:14:53.642Z,101014.72
2022-08-26T11:18:01.323Z,101025.19
2022-08-26T11:20:35.583Z,101021.78
2022-08-26T11:23:50.440Z,101011.00
2022-08-26T11:26:36.012Z,101012.72
2022-08-26T11:29:12.102Z,101018.13
2022-08-26T11:31:57.030Z,101014.41
2022-08-26T11:34:56.199Z,101015.44
2022-08-26T11:37:34.451Z,101012.56
2022-08-26T11:40:09.295Z,101004.84
2022-08-26T11:42:43.391Z,101011.81
2022-08-26T11:45:23.927Z,100997.06
2022-08-26T11:47:52.289Z,101008.09
2022-08-26T11:50:26.116Z,101008.09
2022-08-26T11:52:57.339Z,100997.16
2022-08-26T11:55:26.841Z,100998.69
2022-08-26T11:57:57.728Z,100998.69
2022-08-26T12:00:31.393Z,101002.41
2022-08-26T12:03:07.320Z,100991.59
2022-08-26T12:05:39.633Z,100992.78
2022-08-26T12:08:12.166Z,100990.91
2022-08-26T12:10:41.916Z,101005.81
2022-08-26T12:13:22.009Z,100999.56
2022-08-26T12:15:55.888Z,100998.69
2022-08-26T12:18:29.727Z,100998.69
2022-08-26T12:21:12.353Z,100996.72
2022-08-26T12:23:47.118Z,100909.31
2022-08-26T12:26:24.584Z,101002.41
2022-08-26T12:28:56.199Z,100997.84
2022-08-26T12:31:29.712Z,100996.72
2022-08-26T12:34:00.348Z,100991.00
2022-08-26T12:36:32.283Z,100981.91
2022-08-26T12:39:09.707Z,100976.50
2022-08-26T12:41:46.471Z,100983.63
2022-08-26T12:44:53.843Z,100975.53
2022-08-26T12:47:32.691Z,100983.78
2022-08-26T12:50:17.403Z,100964.91
2022-08-26T12:52:57.249Z,100969.44
2022-08-26T12:55:29.087Z,100964.03
2022-08-26T12:58:25.244Z,100965.72
2022-08-26T13:00:54.283Z,100969.44
2022-08-26T13:03:44.865Z,100958.97
2022-08-26T13:06:17.064Z,100968.06
2022-08-26T13:08:46.306Z,100955.84
2022-08-26T13:11:20.578Z,100956.41
2022-08-26T13:13:51.960Z,100943.47
2022-08-26T13:16:22.498Z,100951.25
2022-08-26T13:18:53.159Z,100943.84
2022-08-26T13:21:24.563Z,100948.25
2022-08-26T13:23:53.240Z,100931.06
2022-08-26T13:26:22.458Z,100939.13
2022-08-26T13:29:01.654Z,100936.44
2022-08-26T13:31:31.999Z,100921.28
2022-08-26T13:34:00.065Z,100921.28
2022-08-26T13:36:29.231Z,100918.59
2022-08-26T13:38:57.341Z,100904.72
2022-08-26T13:41:29.601Z,100907.78
2022-08-26T13:43:59.725Z,100903.38
2022-08-26T13:46:28.475Z,100900.69
2022-08-26T13:48:56.960Z,100895.28
2022-08-26T13:51:26.596Z,100887.19
2022-08-26T13:53:55.095Z,100884.50
2022-08-26T13:56:23.870Z,100882.81
2022-08-26T13:58:51.888Z,100890.22
2022-08-26T14:01:21.287Z,100878.59
2022-08-26T14:03:49.396Z,100877.75
2022-08-26T14:06:17.689Z,100877.75
2022-08-26T14:08:45.822Z,100873.34
2022-08-26T14:11:14.212Z,100868.94
2022-08-26T14:13:42.215Z,100876.06
2022-08-26T14:16:13.114Z,100862.47
2022-08-26T14:18:48.579Z,100878.06
2022-08-26T14:21:18.579Z,100872.66
2022-08-26T14:23:46.560Z,100876.38
2022-08-26T14:26:28.904Z,100875.63
2022-08-26T14:28:58.108Z,100876.38
2022-08-26T14:31:27.170Z,100868.88
2022-08-26T14:33:59.066Z,100872.94
2022-08-26T14:36:32.172Z,100878.34
2022-08-26T14:39:02.926Z,100876.50
2022-08-26T14:41:32.454Z,100874.94
2022-08-26T14:44:03.560Z,100882.06
2022-08-26T14:46:34.724Z,100884.75
2022-08-26T14:49:09.881Z,100838.34
2022-08-26T14:51:38.761Z,100886.59
2022-08-26T14:54:14.364Z,100880.34
2022-08-26T14:56:47.027Z,100887.75
2022-08-26T14:59:17.549Z,100887.44
2022-08-26T15:01:46.408Z,100880.34
2022-08-26T15:04:16.298Z,100882.06
2022-08-26T15:06:44.966Z,100887.75
2022-08-26T15:09:13.586Z,100882.06
2022-08-26T15:11:44.569Z,100882.06
2022-08-26T15:14:19.482Z,100882.06
2022-08-26T15:16:48.312Z,100881.19
2022-08-26T15:19:18.141Z,100883.72
2022-08-26T15:21:47.414Z,100876.66
2022-08-26T15:24:18.455Z,100871.25
2022-08-26T15:26:47.815Z,100876.66
2022-08-26T15:29:16.153Z,100870.41
2022-08-26T15:31:44.452Z,100851.28
2022-08-26T15:34:16.700Z,100873.97
2022-08-26T15:36:48.206Z,100861.94
2022-08-26T15:39:18.391Z,100839.63
2022-08-26T15:41:47.839Z,100849.25
2022-08-26T15:44:19.230Z,100839.09
2022-08-26T15:46:49.353Z,100859.09
2022-08-26T15:49:18.858Z,100859.09
2022-08-26T15:51:50.511Z,100858.41
2022-08-26T15:54:21.366Z,100854.84
2022-08-26T15:56:51.760Z,100862.78
2022-08-26T15:59:21.067Z,100861.09
2022-08-26T16:01:49.330Z,100864.47
2022-08-26T16:04:18.833Z,100855.72
2022-08-26T16:06:50.442Z,100845.91
2022-08-26T16:09:18.971Z,100838.69
2022-08-26T16:11:47.021Z,100830.44
2022-08-26T16:14:15.090Z,100837.81
2022-08-26T16:16:43.177Z,100837.81
2022-08-26T16:19:12.501Z,100834.16
2022-08-26T16:21:41.829Z,100832.44
2022-08-26T16:24:12.035Z,100837.81
2022-08-26T16:26:42.319Z,100835.28
2022-08-26T16:29:12.395Z,100821.66
2022-08-26T16:31:40.859Z,100821.66
2022-08-26T16:34:10.198Z,100825.34
2022-08-26T16:36:40.042Z,100819.09
2022-08-26T16:39:10.780Z,100832.44
2022-08-26T16:41:38.874Z,100829.72
2022-08-26T16:44:08.505Z,100817.44
2022-08-26T16:46:37.250Z,100823.69
2022-08-26T16:49:05.445Z,100819.97
2022-08-26T16:51:37.646Z,100825.50
2022-08-26T16:54:08.861Z,100814.88
2022-08-26T16:56:39.015Z,100823.69
2022-08-26T16:59:09.567Z,100812.13
2022-08-26T17:01:37.723Z,100821.28
2022-08-26T17:04:05.845Z,100818.59
2022-08-26T17:06:34.180Z,100811.34
2022-08-26T17:09:02.396Z,100813.22
2022-08-26T17:11:30.514Z,100734.41
2022-08-26T17:14:00.009Z,100815.06
2022-08-26T17:16:28.741Z,100804.09
2022-08-26T17:18:57.560Z,100799.34
2022-08-26T17:21:26.598Z,100808.63
2022-08-26T17:23:54.721Z,100809.50
2022-08-26T17:26:22.856Z,100809.66
2022-08-26T17:28:51.196Z,100805.13
2022-08-26T17:31:21.457Z,100802.28
2022-08-26T17:33:53.814Z,100816.06
2022-08-26T17:36:28.027Z,100821.28
2022-08-26T17:38:57.561Z,100798.31
2022-08-26T17:41:25.883Z,100824.00
2022-08-26T17:43:53.914Z,100826.63
2022-08-26T17:46:23.701Z,100829.38
2022-08-26T17:48:51.900Z,100833.59
2022-08-26T17:51:20.643Z,100806.53
2022-08-26T17:53:49.029Z,100834.47
2022-08-26T17:56:19.486Z,100829.06
2022-08-26T17:58:51.436Z,100834.47
2022-08-26T18:01:20.690Z,100825.69
2022-08-26T18:03:50.687Z,100817.22
2022-08-26T18:06:19.643Z,100829.06
2022-08-26T18:08:48.408Z,100830.06
2022-08-26T18:11:18.801Z,100824.66
2022-08-26T18:13:47.900Z,100832.75
2022-08-26T18:16:17.957Z,100827.34
2022-08-26T18:18:46.830Z,100832.59
2022-08-26T18:21:20.830Z,100833.06
2022-08-26T18:23:49.782Z,100842.56
2022-08-26T18:26:20.332Z,100839.84
2022-08-26T18:28:48.522Z,100846.06
2022-08-26T18:31:17.040Z,100829.00
2022-08-26T18:33:45.829Z,100838.13
2022-08-26T18:36:20.364Z,100832.75
2022-08-26T18:38:50.706Z,100838.78
2022-08-26T18:41:21.577Z,100828.63
2022-08-26T18:43:50.865Z,100796.81
2022-08-26T18:46:21.135Z,100834.00
2022-08-26T18:48:51.045Z,100834.78
2022-08-26T18:51:24.076Z,100838.13
2022-08-26T18:53:52.703Z,100826.00
2022-08-26T18:56:21.242Z,100835.13
2022-08-26T18:58:50.019Z,100830.06
2022-08-26T19:01:18.932Z,100825.34
2022-08-26T19:03:47.947Z,100827.91
2022-08-26T19:06:19.394Z,100822.59
2022-08-26T19:08:49.797Z,100834.31
2022-08-26T19:11:32.020Z,100831.59
2022-08-26T19:14:07.265Z,100834.47
2022-08-26T19:16:36.329Z,100835.28
2022-08-26T19:19:05.015Z,100831.75
2022-08-26T19:21:34.288Z,100794.38
2022-08-26T19:24:06.492Z,100838.13
2022-08-26T19:26:34.621Z,100831.06
2022-08-26T19:29:02.846Z,100833.75
2022-08-26T19:31:31.357Z,100827.66
2022-08-26T19:33:59.649Z,100818.91
2022-08-26T19:36:28.865Z,100829.38
2022-08-26T19:38:57.418Z,100829.06
2022-08-26T19:41:37.140Z,100811.19
2022-08-26T19:44:08.750Z,100814.88
2022-08-26T19:49:06.778Z,100814.56
2022-08-26T19:51:36.514Z,100810.84
2022-08-26T19:54:05.374Z,100806.47
2022-08-26T19:56:35.046Z,100811.19
2022-08-26T19:59:03.060Z,100811.81
2022-08-26T20:01:31.222Z,100805.75
2022-08-26T20:03:59.329Z,100793.09
2022-08-26T20:06:27.468Z,100788.88
2022-08-26T20:08:56.240Z,100793.97
2022-08-26T20:11:25.212Z,100785.00
2022-08-26T20:13:55.348Z,100779.47
2022-08-26T20:16:23.514Z,100781.50
2022-08-26T20:19:09.280Z,100777.78
2022-08-26T20:21:40.374Z,100769.00
2022-08-26T20:24:10.869Z,100769.00
2022-08-26T20:26:40.836Z,100775.25
2022-08-26T20:29:12.418Z,100776.94
2022-08-26T20:31:41.292Z,100770.72
2022-08-26T20:34:09.821Z,100772.38
2022-08-26T20:36:40.156Z,100772.38
2022-08-26T20:39:08.782Z,100764.31
2022-08-26T20:41:36.794Z,100773.41
2022-08-26T20:44:06.037Z,100753.78
2022-08-26T20:46:36.231Z,100759.56
2022-08-26T20:49:05.929Z,100726.41
2022-08-26T20:51:37.405Z,100756.22
2022-08-26T20:54:06.659Z,100772.56
2022-08-26T20:56:35.109Z,100761.06
2022-08-26T20:59:03.647Z,100767.00
2022-08-26T21:01:34.880Z,100770.38
2022-08-26T21:04:07.195Z,100769.53
2022-08-26T21:06:35.550Z,100768.69
2022-08-26T21:09:04.582Z,100771.03
2022-08-26T21:11:33.279Z,100776.09
2022-08-26T21:14:06.841Z,100779.78
2022-08-26T21:16:45.287Z,100786.88
2022-08-26T21:19:18.068Z,100783.50
2022-08-26T21:21:46.746Z,100789.56
2022-08-26T21:24:15.533Z,100786.03
2022-08-26T21:26:43.860Z,100791.41
2022-08-26T21:29:13.630Z,100791.56
2022-08-26T21:31:45.987Z,100792.28
2022-08-26T21:34:17.321Z,100791.41
2022-08-26T21:36:45.373Z,100797.66
2022-08-26T21:39:13.907Z,100795.97
2022-08-26T21:41:43.079Z,100798.81
2022-08-26T21:44:11.759Z,100793.41
2022-08-26T21:46:39.799Z,100795.97
2022-08-26T21:49:11.188Z,100786.66
2022-08-26T21:51:44.240Z,100783.81
2022-08-26T21:54:13.497Z,100794.28
2022-08-26T21:56:44.594Z,100780.09
2022-08-26T21:59:13.679Z,100779.78
2022-08-26T22:01:41.929Z,100776.41
2022-08-26T22:04:11.346Z,100780.63
2022-08-26T22:06:46.205Z,100780.63
2022-08-26T22:09:16.160Z,100782.47
2022-08-26T22:11:44.601Z,100776.09
2022-08-26T22:14:13.175Z,100776.94
2022-08-26T22:16:41.521Z,100769.00
2022-08-26T22:19:18.313Z,100767.00
2022-08-26T22:21:49.543Z,100773.41
2022-08-26T22:24:18.097Z,100765.63
2022-08-26T22:26:46.607Z,100763.91
2022-08-26T22:29:15.205Z,100772.16
2022-08-26T22:31:44.951Z,100770.72
2022-08-26T22:34:17.173Z,100765.31
2022-08-26T22:36:49.302Z,100769.00
2022-08-26T22:39:19.376Z,100765.31
2022-08-26T22:41:48.691Z,100763.59
2022-08-26T22:44:17.179Z,100769.00
2022-08-26T22:46:46.159Z,100774.38
2022-08-26T22:49:16.904Z,100771.03
2022-08-26T22:51:45.419Z,100783.50
2022-08-26T22:54:15.806Z,100781.81
2022-08-26T22:56:44.233Z,100781.50
2022-08-26T22:59:12.959Z,100793.97
2022-08-26T23:01:43.905Z,100781.16
2022-08-26T23:04:12.732Z,100779.47
2022-08-26T23:06:47.815Z,100774.06
2022-08-26T23:09:18.904Z,100778.63
2022-08-26T23:11:48.580Z,100761.53
2022-08-26T23:14:17.280Z,100781.50
2022-08-26T23:16:45.416Z,100777.78
2022-08-26T23:19:15.602Z,100777.78
2022-08-26T23:21:44.487Z,100775.25
2022-08-26T23:24:13.811Z,100741.13
2022-08-26T23:26:43.758Z,100783.16
2022-08-26T23:29:15.680Z,100772.38
2022-08-26T23:31:44.705Z,100771.38
2022-08-26T23:34:31.012Z,100770.38
2022-08-26T23:36:59.106Z,100761.59
2022-08-26T23:39:28.249Z,100768.69
2022-08-26T23:41:58.337Z,100770.38
2022-08-26T23:44:26.828Z,100769.53
2022-08-26T23:46:55.272Z,100775.78
2022-08-26T23:49:23.588Z,100778.63
2022-08-26T23:52:09.116Z,100772.38
2022-08-26T23:54:37.877Z,100766.78
2022-08-26T23:57:08.602Z,100720.38
2022-08-26T23:59:38.968Z,100767.31
